Time;durP1;ratioP1;P1;durP2;ratioP2;P2;SDS_P1;SDS_P2;PMS_P1;PMS_P2;Temp;Humidity;BMP_temperature;BMP_pressure;BME280_temperature;BME280_humidity;BME280_pressure;Samples;Min_cycle;Max_cycle;Signal;HPM_P1;HPM_P2
2024/04/09 00:02:09;;;;;;;13.50;10.40;;;18.40;1.00;;;;;;5383182;26;20526;-73
2024/04/09 00:04:37;;;;;;;12.97;10.70;;;18.40;1.00;;;;;;5379834;26;20485;-73
2024/04/09 00:07:06;;;;;;;13.17;9.13;;;18.40;1.00;;;;;;5373845;26;20991;-73
2024/04/09 00:09:57;;;;;;;11.20;10.10;;;18.40;1.00;;;;;;5378579;26;20596;-74
2024/04/09 00:12:26;;;;;;;13.10;9.90;;;18.30;1.00;;;;;;5379138;26;20696;-74
2024/04/09 00:14:55;;;;;;;10.60;9.63;;;18.20;1.00;;;;;;5379107;26;20490;-73
2024/04/09 00:17:34;;;;;;;11.93;9.73;;;18.10;1.00;;;;;;5382912;26;20622;-72
2024/04/09 00:20:00;;;;;;;11.20;9.43;;;18.10;1.00;;;;;;5379105;26;20483;-73
2024/04/09 00:22:29;;;;;;;12.03;9.50;;;18.00;1.00;;;;;;5381009;26;20573;-73
2024/04/09 00:24:55;;;;;;;17.90;11.27;;;18.00;1.00;;;;;;5376770;26;20536;-72
2024/04/09 00:27:23;;;;;;;15.63;11.40;;;17.90;1.00;;;;;;5378557;26;20532;-73
2024/04/09 00:29:49;;;;;;;13.93;10.97;;;17.90;1.00;;;;;;5377678;26;20382;-73
2024/04/09 00:32:18;;;;;;;14.77;9.33;;;17.90;1.00;;;;;;5382640;26;20836;-73
2024/04/09 00:34:46;;;;;;;20.60;10.90;;;17.90;1.00;;;;;;5381557;26;20554;-74
2024/04/09 00:37:15;;;;;;;15.40;10.63;;;17.80;1.00;;;;;;5378136;26;20509;-73
2024/04/09 00:39:41;;;;;;;15.70;10.43;;;17.70;1.00;;;;;;5379814;26;20866;-73
2024/04/09 00:42:10;;;;;;;13.73;9.63;;;17.70;1.00;;;;;;5380575;26;20498;-73
2024/04/09 00:44:36;;;;;;;10.40;9.33;;;17.60;1.00;;;;;;5383020;26;20483;-73
2024/04/09 00:47:06;;;;;;;10.67;9.70;;;17.60;1.00;;;;;;5380067;26;21995;-73
2024/04/09 00:49:32;;;;;;;16.00;10.27;;;17.60;1.00;;;;;;5378211;26;20506;-73
2024/04/09 00:52:07;;;;;;;14.50;10.47;;;17.60;1.00;;;;;;5381242;26;20610;-73
2024/04/09 00:54:35;;;;;;;16.87;11.00;;;17.60;1.00;;;;;;5379493;26;20553;-74
2024/04/09 00:57:04;;;;;;;14.10;11.00;;;17.60;1.00;;;;;;5379881;26;20480;-73
2024/04/09 00:59:32;;;;;;;17.17;11.87;;;17.50;1.00;;;;;;5376220;26;20532;-73
2024/04/09 01:02:02;;;;;;;14.33;10.07;;;17.60;1.00;;;;;;5380970;26;20542;-72
2024/04/09 01:04:30;;;;;;;13.80;11.33;;;17.50;1.00;;;;;;5378824;26;20539;-73
2024/04/09 01:06:59;;;;;;;13.67;10.43;;;17.50;1.00;;;;;;5380055;26;20777;-73
2024/04/09 01:09:27;;;;;;;11.87;10.00;;;17.50;1.00;;;;;;5381128;26;21061;-73
2024/04/09 01:11:56;;;;;;;11.33;10.17;;;17.40;1.00;;;;;;5374588;26;20523;-72
2024/04/09 01:14:22;;;;;;;10.73;9.40;;;17.30;1.00;;;;;;5377351;26;20490;-72
2024/04/09 01:16:50;;;;;;;11.03;10.00;;;17.30;1.00;;;;;;5374165;26;20481;-73
2024/04/09 01:19:16;;;;;;;12.20;10.03;;;17.30;1.00;;;;;;5376660;26;20494;-71
2024/04/09 01:21:45;;;;;;;20.90;10.77;;;17.30;1.00;;;;;;5375653;26;20495;-72
2024/04/09 01:24:14;;;;;;;13.70;10.60;;;17.20;1.00;;;;;;5374056;26;20807;-72
2024/04/09 01:26:43;;;;;;;15.47;10.40;;;17.20;1.00;;;;;;5379376;26;20495;-72
2024/04/09 01:29:09;;;;;;;14.70;10.13;;;17.20;1.00;;;;;;5379864;26;20494;-72
2024/04/09 01:31:38;;;;;;;13.80;10.33;;;17.10;1.00;;;;;;5378984;26;20504;-72
2024/04/09 01:34:04;;;;;;;12.70;10.33;;;17.10;1.00;;;;;;5377870;26;20975;-71
2024/04/09 01:36:34;;;;;;;18.63;10.47;;;17.10;1.00;;;;;;5379636;26;20545;-72
2024/04/09 01:39:00;;;;;;;13.40;10.20;;;17.10;1.00;;;;;;5378021;26;20494;-72
2024/04/09 01:41:31;;;;;;;13.57;11.03;;;17.20;1.00;;;;;;5378730;26;20495;-72
2024/04/09 01:43:57;;;;;;;12.20;9.97;;;17.20;1.00;;;;;;5377998;26;20494;-75
2024/04/09 01:46:26;;;;;;;11.70;10.17;;;17.10;1.00;;;;;;5381703;26;20478;-72
2024/04/09 01:48:52;;;;;;;13.57;10.10;;;17.00;1.00;;;;;;5378999;26;20501;-71
2024/04/09 01:51:21;;;;;;;13.03;9.90;;;17.00;1.00;;;;;;5377757;26;20583;-74
2024/04/09 01:53:48;;;;;;;15.97;11.27;;;17.00;1.00;;;;;;5376551;26;20976;-74
2024/04/09 01:56:16;;;;;;;14.10;10.93;;;17.10;1.00;;;;;;5377152;26;20603;-71
2024/04/09 01:58:46;;;;;;;13.80;10.37;;;17.00;1.00;;;;;;5377522;26;20543;-72
2024/04/09 02:01:15;;;;;;;15.57;10.83;;;17.00;1.00;;;;;;5379246;26;20535;-72
2024/04/09 02:03:41;;;;;;;17.40;11.07;;;17.00;1.00;;;;;;5378925;26;20491;-72
2024/04/09 02:06:11;;;;;;;11.27;10.00;;;17.00;1.00;;;;;;5378985;26;21055;-71
2024/04/09 02:08:37;;;;;;;11.97;10.10;;;17.00;1.00;;;;;;5378144;26;20949;-72
2024/04/09 02:11:12;;;;;;;11.67;10.30;;;17.00;1.00;;;;;;5381610;26;20486;-72
2024/04/09 02:13:40;;;;;;;11.20;9.90;;;17.00;1.00;;;;;;5379208;26;20483;-72
2024/04/09 02:16:11;;;;;;;17.20;10.40;;;17.10;1.00;;;;;;5383518;26;20630;-72
2024/04/09 02:18:38;;;;;;;12.60;10.30;;;17.00;1.00;;;;;;5381130;26;20505;-72
2024/04/09 02:21:09;;;;;;;13.00;9.77;;;17.00;1.00;;;;;;5381245;26;20528;-73
2024/04/09 02:23:35;;;;;;;12.60;9.47;;;17.00;1.00;;;;;;5380833;26;21126;-72
2024/04/09 02:26:04;;;;;;;11.57;9.93;;;17.00;1.00;;;;;;5381150;26;20487;-72
2024/04/09 02:28:30;;;;;;;14.27;10.40;;;17.10;1.00;;;;;;5379882;26;20547;-71
2024/04/09 02:30:59;;;;;;;17.20;9.70;;;17.10;1.00;;;;;;5381916;26;20494;-72
2024/04/09 02:33:27;;;;;;;12.80;10.20;;;17.10;1.00;;;;;;5381500;26;20506;-72
2024/04/09 02:35:57;;;;;;;17.30;10.90;;;17.10;1.00;;;;;;5383481;26;20579;-71
2024/04/09 02:38:24;;;;;;;14.13;10.77;;;17.10;1.00;;;;;;5378447;26;20523;-72
2024/04/09 02:40:53;;;;;;;12.10;10.80;;;17.00;1.00;;;;;;5381142;26;20598;-72
2024/04/09 02:43:20;;;;;;;11.33;10.10;;;17.00;1.00;;;;;;5377873;26;20965;-72
2024/04/09 02:45:48;;;;;;;11.30;10.20;;;17.00;1.00;;;;;;5383463;26;20486;-72
2024/04/09 02:48:15;;;;;;;13.77;10.80;;;17.00;1.00;;;;;;5384731;26;20501;-72
2024/04/09 02:50:53;;;;;;;15.80;10.63;;;16.90;1.00;;;;;;5382781;26;20584;-73
2024/04/09 02:53:19;;;;;;;15.83;10.20;;;16.90;1.00;;;;;;5381794;26;20478;-72
2024/04/09 02:55:48;;;;;;;11.13;10.10;;;16.80;1.00;;;;;;5381498;26;20529;-73
2024/04/09 02:58:14;;;;;;;12.13;11.03;;;16.80;1.00;;;;;;5379552;26;20545;-74
2024/04/09 03:00:43;;;;;;;23.07;12.70;;;16.70;1.00;;;;;;5381547;26;20528;-73
2024/04/09 03:03:09;;;;;;;11.90;10.70;;;16.60;1.00;;;;;;5376264;26;20477;-71
2024/04/09 03:05:37;;;;;;;12.10;10.47;;;16.50;1.00;;;;;;5373896;26;20560;-72
2024/04/09 03:08:06;;;;;;;13.93;11.53;;;16.60;1.00;;;;;;5378748;26;20489;-71
2024/04/09 03:10:38;;;;;;;12.57;11.27;;;16.70;1.00;;;;;;5377755;26;20569;-72
2024/04/09 03:13:04;;;;;;;12.77;10.40;;;16.70;1.00;;;;;;5344946;26;20523;-72
2024/04/09 03:15:33;;;;;;;12.40;10.73;;;16.70;1.00;;;;;;5345963;26;21075;-73
2024/04/09 03:17:59;;;;;;;16.33;11.40;;;16.70;1.00;;;;;;5347891;26;20543;-72
2024/04/09 03:20:28;;;;;;;16.13;11.77;;;16.70;1.00;;;;;;5345128;26;20529;-71
2024/04/09 03:22:54;;;;;;;13.17;11.87;;;16.70;1.00;;;;;;5343824;26;20598;-72
2024/04/09 03:25:25;;;;;;;12.73;10.50;;;16.70;1.00;;;;;;5346088;26;21083;-71
2024/04/09 03:27:51;;;;;;;18.97;12.07;;;16.70;1.00;;;;;;5341389;26;20528;-72
2024/04/09 03:30:20;;;;;;;14.13;11.83;;;16.60;1.00;;;;;;5345742;26;20487;-72
2024/04/09 03:32:46;;;;;;;21.47;11.57;;;16.60;1.00;;;;;;5348186;26;21067;-72
2024/04/09 03:35:15;;;;;;;12.83;10.93;;;16.60;1.00;;;;;;5362348;26;20572;-74
2024/04/09 03:37:43;;;;;;;14.93;10.70;;;16.50;1.00;;;;;;5348152;26;20504;-70
2024/04/09 03:40:12;;;;;;;13.80;10.97;;;16.60;1.00;;;;;;5341737;26;20501;-74
2024/04/09 03:42:43;;;;;;;18.50;12.83;;;16.60;1.00;;;;;;5343609;26;20488;-74
2024/04/09 03:45:11;;;;;;;15.20;12.50;;;16.60;1.00;;;;;;5345103;26;20497;-74
2024/04/09 03:47:40;;;;;;;13.50;12.20;;;16.60;1.00;;;;;;5348100;26;20503;-73
2024/04/09 03:50:07;;;;;;;13.63;11.83;;;16.60;1.00;;;;;;5346558;26;20512;-74
2024/04/09 03:52:35;;;;;;;12.53;11.23;;;16.60;1.00;;;;;;5343068;26;20496;-74
2024/04/09 03:55:01;;;;;;;18.53;13.03;;;16.60;1.00;;;;;;5357898;26;20500;-73
2024/04/09 03:57:30;;;;;;;13.90;10.90;;;16.70;1.00;;;;;;5347797;26;20503;-75
2024/04/09 03:59:59;;;;;;;16.53;13.83;;;16.70;1.00;;;;;;5345169;26;20484;-73
2024/04/09 04:02:28;;;;;;;16.10;12.23;;;16.70;1.00;;;;;;5344473;26;20486;-72
2024/04/09 04:04:54;;;;;;;19.93;13.70;;;16.70;1.00;;;;;;5337798;26;20580;-73
2024/04/09 04:07:23;;;;;;;13.20;12.00;;;16.70;1.00;;;;;;5334601;26;20520;-73
2024/04/09 04:09:49;;;;;;;11.77;10.73;;;16.70;1.00;;;;;;5345426;26;20479;-73
2024/04/09 04:12:18;;;;;;;14.10;10.80;;;16.70;1.00;;;;;;5337196;26;20549;-73
2024/04/09 04:14:45;;;;;;;16.33;12.10;;;16.80;1.00;;;;;;5344612;26;20527;-74
2024/04/09 04:17:16;;;;;;;14.83;11.73;;;16.80;1.00;;;;;;5381081;26;20490;-74
2024/04/09 04:19:42;;;;;;;14.40;11.57;;;16.80;1.00;;;;;;5381112;26;20970;-73
2024/04/09 04:22:13;;;;;;;19.23;12.17;;;16.80;1.00;;;;;;5382568;26;20586;-73
2024/04/09 04:24:39;;;;;;;18.77;11.80;;;16.80;1.00;;;;;;5365114;26;20499;-73
2024/04/09 04:27:07;;;;;;;15.13;10.73;;;16.70;1.00;;;;;;5343049;26;20555;-74
2024/04/09 04:29:33;;;;;;;13.13;11.67;;;16.70;1.00;;;;;;5342739;26;20475;-73
2024/04/09 04:32:02;;;;;;;17.37;12.10;;;16.70;1.00;;;;;;5344001;26;21154;-75
2024/04/09 04:34:31;;;;;;;14.13;12.77;;;16.70;1.00;;;;;;5347185;26;20492;-74
2024/04/09 04:36:59;;;;;;;12.33;11.10;;;16.70;1.00;;;;;;5357291;26;20539;-73
2024/04/09 04:39:26;;;;;;;13.97;12.50;;;16.70;1.00;;;;;;5346475;26;20479;-73
2024/04/09 04:41:58;;;;;;;17.87;12.63;;;16.70;1.00;;;;;;5342718;26;20486;-74
2024/04/09 04:44:24;;;;;;;19.17;14.47;;;16.80;1.00;;;;;;5357072;26;21050;-73
2024/04/09 04:46:53;;;;;;;16.17;12.53;;;16.90;1.00;;;;;;5364951;26;20592;-74
2024/04/09 04:49:19;;;;;;;13.30;11.93;;;16.90;1.00;;;;;;5345215;26;20485;-73
2024/04/09 04:51:50;;;;;;;19.00;11.77;;;17.00;1.00;;;;;;5339405;26;20580;-73
2024/04/09 04:54:17;;;;;;;15.27;11.37;;;17.00;1.00;;;;;;5341832;26;20842;-72
2024/04/09 04:56:46;;;;;;;16.13;11.40;;;17.00;1.00;;;;;;5370925;26;20491;-72
2024/04/09 04:59:12;;;;;;;13.37;11.03;;;17.10;1.00;;;;;;5376198;26;21022;-72
2024/04/09 05:01:40;;;;;;;13.47;11.93;;;17.10;1.00;;;;;;5377618;26;20487;-73
2024/04/09 05:04:06;;;;;;;13.77;12.47;;;17.10;1.00;;;;;;5376691;26;20273;-74
2024/04/09 05:06:35;;;;;;;14.70;11.17;;;17.20;1.00;;;;;;5378356;26;20575;-73
2024/04/09 05:09:07;;;;;;;13.10;11.80;;;17.30;1.00;;;;;;5377889;26;20491;-72
2024/04/09 05:11:36;;;;;;;14.20;11.20;;;17.30;1.00;;;;;;5375761;26;20978;-72
2024/04/09 05:14:02;;;;;;;14.37;10.93;;;17.30;1.00;;;;;;5376934;26;20491;-71
2024/04/09 05:16:30;;;;;;;16.00;11.87;;;17.30;1.00;;;;;;5377956;26;21379;-73
2024/04/09 05:18:56;;;;;;;14.73;11.70;;;17.30;1.00;;;;;;5376909;26;20539;-72
2024/04/09 05:21:25;;;;;;;12.53;10.60;;;17.30;1.00;;;;;;5379725;26;20541;-73
2024/04/09 05:23:51;;;;;;;15.13;12.20;;;17.30;1.00;;;;;;5378016;26;20511;-72
2024/04/09 05:26:23;;;;;;;14.77;11.53;;;17.40;1.00;;;;;;5377524;26;20488;-73
2024/04/09 05:28:49;;;;;;;15.83;12.03;;;17.40;1.00;;;;;;5379120;26;20542;-72
2024/04/09 05:31:18;;;;;;;11.90;10.80;;;17.40;1.00;;;;;;5370723;26;20496;-72
2024/04/09 05:33:43;;;;;;;15.27;12.00;;;17.50;1.00;;;;;;5381203;26;21061;-73
2024/04/09 05:36:12;;;;;;;13.50;10.87;;;17.60;1.00;;;;;;5381960;26;20526;-73
2024/04/09 05:38:40;;;;;;;13.00;11.07;;;17.70;1.00;;;;;;5381376;26;20262;-73
2024/04/09 05:41:08;;;;;;;16.83;12.47;;;17.80;1.00;;;;;;5381832;26;21031;-73
2024/04/09 05:43:39;;;;;;;14.67;12.13;;;17.90;1.00;;;;;;5380428;26;20827;-72
2024/04/09 05:46:07;;;;;;;14.10;11.60;;;18.00;1.00;;;;;;5381749;26;20493;-73
2024/04/09 05:48:33;;;;;;;14.17;11.37;;;18.20;1.00;;;;;;5383220;26;20896;-72
2024/04/09 05:51:03;;;;;;;11.83;10.77;;;18.30;1.00;;;;;;5382720;26;20518;-72
2024/04/09 05:53:28;;;;;;;17.63;10.77;;;18.40;1.00;;;;;;5381008;26;20489;-73
2024/04/09 05:55:57;;;;;;;13.40;10.30;;;18.60;1.00;;;;;;5382106;26;20488;-73
2024/04/09 05:58:23;;;;;;;11.30;10.20;;;18.70;1.00;;;;;;5382927;26;20540;-72
2024/04/09 06:00:56;;;;;;;11.77;10.50;;;18.90;1.00;;;;;;5382143;26;20543;-72
2024/04/09 06:03:22;;;;;;;12.47;10.70;;;18.90;1.00;;;;;;5382957;26;20493;-72
2024/04/09 06:05:51;;;;;;;10.63;9.60;;;19.10;1.00;;;;;;5379495;26;22015;-72
2024/04/09 06:08:17;;;;;;;13.03;10.00;;;19.20;1.00;;;;;;5383093;26;20519;-72
2024/04/09 06:10:46;;;;;;;11.20;10.00;;;19.30;1.00;;;;;;5382236;26;20897;-72
2024/04/09 06:13:12;;;;;;;12.80;11.50;;;19.40;1.00;;;;;;5378696;26;21005;-71
2024/04/09 06:15:41;;;;;;;11.57;10.43;;;19.50;1.00;;;;;;5382511;26;20505;-73
2024/04/09 06:18:11;;;;;;;13.80;10.60;;;19.50;1.00;;;;;;5382596;26;20490;-72
2024/04/09 06:20:40;;;;;;;10.37;9.30;;;19.60;1.00;;;;;;5380056;26;20480;-72
2024/04/09 06:23:06;;;;;;;11.07;9.97;;;19.70;1.00;;;;;;5380170;26;20514;-72
2024/04/09 06:25:34;;;;;;;13.20;9.90;;;19.80;1.00;;;;;;5381661;26;20829;-73
2024/04/09 06:28:00;;;;;;;14.17;8.93;;;19.60;1.00;;;;;;5382982;26;20528;-72
2024/04/09 06:30:29;;;;;;;10.30;9.40;;;19.50;1.00;;;;;;5381218;26;20493;-73
2024/04/09 06:32:55;;;;;;;9.80;8.93;;;19.40;1.00;;;;;;5381508;26;20526;-71
2024/04/09 06:35:26;;;;;;;9.43;8.53;;;19.30;1.00;;;;;;5381452;26;20548;-71
2024/04/09 06:37:52;;;;;;;8.77;8.07;;;19.30;1.00;;;;;;5380170;26;20560;-72
2024/04/09 06:40:22;;;;;;;12.97;10.13;;;19.60;1.00;;;;;;5381435;26;20543;-71
2024/04/09 06:42:47;;;;;;;16.63;9.60;;;19.80;1.00;;;;;;5382198;26;21082;-73
2024/04/09 06:45:16;;;;;;;12.00;9.07;;;19.90;1.00;;;;;;5382971;26;20524;-72
2024/04/09 06:47:42;;;;;;;13.17;9.70;;;20.00;1.00;;;;;;5383792;26;20906;-72
2024/04/09 06:50:11;;;;;;;9.90;8.83;;;20.00;1.00;;;;;;5384758;26;20583;-71
2024/04/09 06:52:39;;;;;;;14.23;10.37;;;20.00;1.00;;;;;;5382883;26;20989;-71
2024/04/09 06:55:09;;;;;;;11.10;9.90;;;20.10;1.00;;;;;;5383351;26;20528;-72
2024/04/09 06:57:35;;;;;;;13.27;9.50;;;20.10;1.00;;;;;;5384643;26;20538;-72
2024/04/09 07:00:06;;;;;;;10.27;9.23;;;20.10;1.00;;;;;;5373520;26;20596;-72
2024/04/09 07:02:33;;;;;;;10.00;8.57;;;20.00;1.00;;;;;;5380833;26;20537;-71
2024/04/09 07:05:06;;;;;;;9.33;8.43;;;20.10;1.00;;;;;;5385526;26;20978;-72
2024/04/09 07:07:34;;;;;;;19.40;9.63;;;20.20;1.00;;;;;;5383647;26;20527;-72
2024/04/09 07:10:05;;;;;;;14.20;9.80;;;20.30;1.00;;;;;;5382201;26;20580;-73
2024/04/09 07:12:32;;;;;;;9.43;8.50;;;20.50;1.00;;;;;;5379815;26;20539;-73
2024/04/09 07:15:03;;;;;;;10.30;9.33;;;20.60;1.00;;;;;;5380391;26;20498;-73
2024/04/09 07:17:29;;;;;;;11.17;7.93;;;20.70;1.00;;;;;;5381703;26;20502;-73
2024/04/09 07:20:01;;;;;;;11.20;9.30;;;20.70;1.00;;;;;;5384569;26;21773;-72
2024/04/09 07:22:27;;;;;;;12.70;10.90;;;20.80;1.00;;;;;;5383405;26;20478;-72
2024/04/09 07:24:56;;;;;;;10.70;9.07;;;20.80;1.00;;;;;;5350337;26;20541;-73
2024/04/09 07:27:24;;;;;;;9.50;8.60;;;21.00;1.00;;;;;;5343899;26;20530;-73
2024/04/09 07:29:53;;;;;;;11.63;8.50;;;21.20;1.00;;;;;;5348608;26;21868;-73
2024/04/09 07:32:22;;;;;;;8.37;7.50;;;21.20;1.00;;;;;;5372581;26;20564;-72
2024/04/09 07:34:53;;;;;;;9.33;8.00;;;21.30;1.00;;;;;;5385171;26;20503;-74
2024/04/09 07:37:19;;;;;;;9.50;8.30;;;21.40;1.00;;;;;;5386821;26;20570;-72
2024/04/09 07:39:48;;;;;;;12.80;8.47;;;21.50;1.00;;;;;;5383501;26;21008;-71
2024/04/09 07:42:14;;;;;;;10.83;8.20;;;21.70;1.00;;;;;;5348890;26;21010;-72
2024/04/09 07:44:45;;;;;;;8.17;7.33;;;21.90;1.00;;;;;;5347164;26;20632;-71
2024/04/09 07:47:11;;;;;;;9.30;7.67;;;22.10;1.00;;;;;;5364191;26;20531;-72
2024/04/09 07:49:40;;;;;;;8.40;6.63;;;22.30;1.00;;;;;;5350268;26;20591;-71
2024/04/09 07:52:06;;;;;;;7.63;6.93;;;22.40;1.00;;;;;;5347971;26;21169;-72
2024/04/09 07:54:35;;;;;;;9.17;6.80;;;22.60;1.00;;;;;;5349534;26;20491;-72
2024/04/09 07:57:01;;;;;;;8.97;7.53;;;22.80;1.00;;;;;;5349160;26;20509;-72
2024/04/09 07:59:30;;;;;;;8.40;6.30;;;22.90;1.00;;;;;;5364345;26;20497;-73
2024/04/09 08:01:59;;;;;;;7.87;7.03;;;22.90;1.00;;;;;;5349872;26;20656;-73
2024/04/09 08:04:28;;;;;;;13.47;7.60;;;22.80;1.00;;;;;;5348564;26;20615;-73
2024/04/09 08:06:53;;;;;;;11.33;6.60;;;22.80;1.00;;;;;;5347996;26;21080;-72
2024/04/09 08:09:22;;;;;;;7.70;6.20;;;23.00;1.00;;;;;;5357352;26;20538;-73
2024/04/09 08:11:49;;;;;;;7.00;6.30;;;23.00;1.00;;;;;;5370922;26;20616;-73
2024/04/09 08:14:22;;;;;;;7.10;6.40;;;23.10;1.00;;;;;;5383757;26;20570;-72
2024/04/09 08:16:48;;;;;;;9.40;6.47;;;23.10;1.00;;;;;;5384085;26;20553;-73
2024/04/09 08:19:20;;;;;;;7.37;6.77;;;23.30;1.00;;;;;;5383064;26;20486;-73
2024/04/09 08:21:46;;;;;;;7.60;6.07;;;23.40;1.00;;;;;;5352599;26;20487;-71
2024/04/09 08:24:15;;;;;;;11.40;7.40;;;23.40;1.00;;;;;;5345488;26;20976;-72
2024/04/09 08:26:41;;;;;;;10.90;6.40;;;23.70;1.00;;;;;;5345231;26;20298;-71
2024/04/09 08:29:14;;;;;;;9.93;7.30;;;24.00;1.00;;;;;;5343377;26;20588;-72
2024/04/09 08:31:43;;;;;;;6.40;5.80;;;24.20;1.00;;;;;;5343471;26;20707;-72
2024/04/09 08:34:12;;;;;;;10.20;6.17;;;24.40;1.00;;;;;;5346694;26;20490;-72
2024/04/09 08:36:41;;;;;;;7.07;5.77;;;24.30;1.00;;;;;;5350287;26;20985;-71
2024/04/09 08:39:13;;;;;;;7.93;6.47;;;24.50;1.00;;;;;;5367232;26;21032;-72
2024/04/09 08:41:39;;;;;;;19.17;6.93;;;24.60;1.00;;;;;;5353960;26;20491;-72
2024/04/09 08:44:10;;;;;;;8.10;5.60;;;24.70;1.00;;;;;;5348436;26;20599;-73
2024/04/09 08:46:37;;;;;;;6.67;5.13;;;24.70;1.00;;;;;;5347599;26;21072;-72
2024/04/09 08:49:08;;;;;;;6.20;5.40;;;24.80;1.00;;;;;;5348685;26;20497;-72
2024/04/09 08:51:35;;;;;;;9.23;6.43;;;25.10;1.00;;;;;;5360953;26;20486;-72
2024/04/09 08:54:07;;;;;;;12.40;6.73;;;25.30;1.00;;;;;;5362590;26;20485;-72
2024/04/09 08:56:33;;;;;;;9.53;7.10;;;25.50;1.00;;;;;;5357777;26;20499;-71
2024/04/09 08:59:04;;;;;;;5.40;5.00;;;25.80;1.00;;;;;;5351216;26;20480;-72
2024/04/09 09:01:30;;;;;;;6.53;5.67;;;25.90;1.00;;;;;;5346943;26;20545;-72
2024/04/09 09:04:00;;;;;;;6.27;5.03;;;26.00;1.00;;;;;;5345512;26;21020;-72
2024/04/09 09:06:25;;;;;;;7.87;4.70;;;26.10;1.00;;;;;;5379959;26;20506;-74
2024/04/09 09:08:54;;;;;;;10.60;7.33;;;26.10;1.00;;;;;;5383505;26;21035;-72
2024/04/09 09:11:23;;;;;;;5.40;4.90;;;26.20;1.00;;;;;;5384675;26;20478;-71
2024/04/09 09:13:52;;;;;;;6.90;5.10;;;26.40;1.00;;;;;;5380653;26;20499;-72
2024/04/09 09:16:18;;;;;;;8.00;4.90;;;26.50;1.00;;;;;;5373242;26;20492;-73
2024/04/09 09:18:47;;;;;;;5.87;5.03;;;26.70;1.00;;;;;;5347217;26;20537;-72
2024/04/09 09:21:15;;;;;;;6.07;4.90;;;27.00;1.00;;;;;;5349498;26;21072;-72
2024/04/09 09:23:44;;;;;;;5.80;5.17;;;27.40;1.00;;;;;;5372830;26;20515;-72
2024/04/09 09:26:10;;;;;;;5.50;5.00;;;27.80;1.00;;;;;;5349888;26;20495;-72
2024/04/09 09:28:42;;;;;;;5.57;5.07;;;28.30;1.00;;;;;;5348520;26;20493;-74
2024/04/09 09:31:10;;;;;;;8.33;4.60;;;29.00;1.00;;;;;;5363272;26;20491;-73
2024/04/09 09:33:42;;;;;;;5.60;5.10;;;29.70;1.00;;;;;;5371472;26;20493;-72
2024/04/09 09:36:09;;;;;;;9.70;6.00;;;30.40;1.00;;;;;;5378381;26;20528;-74
2024/04/09 09:38:39;;;;;;;6.90;4.90;;;31.40;1.00;;;;;;5383331;26;20981;-72
2024/04/09 09:41:08;;;;;;;5.13;4.43;;;32.00;1.00;;;;;;5365903;26;20495;-73
2024/04/09 09:43:37;;;;;;;11.10;6.27;;;32.50;1.00;;;;;;5347878;26;20506;-72
2024/04/09 09:46:11;;;;;;;9.40;4.43;;;33.00;1.00;;;;;;5345474;26;20531;-72
2024/04/09 09:48:41;;;;;;;5.73;3.80;;;33.50;1.00;;;;;;5345338;26;21193;-73
2024/04/09 09:51:07;;;;;;;5.17;4.00;;;33.40;1.00;;;;;;5349690;26;20549;-73
2024/04/09 09:53:36;;;;;;;5.63;3.90;;;33.50;1.00;;;;;;5379755;26;20609;-74
2024/04/09 09:56:06;;;;;;;10.63;4.57;;;33.50;1.00;;;;;;5365631;26;22472;-74
2024/04/09 09:58:37;;;;;;;7.70;4.37;;;33.60;1.00;;;;;;5381422;26;20561;-74
2024/04/09 10:01:09;;;;;;;4.00;3.70;;;33.80;1.00;;;;;;5380329;26;20978;-73
2024/04/09 10:03:38;;;;;;;6.10;4.63;;;34.40;1.00;;;;;;5381074;26;20629;-71
2024/04/09 10:06:05;;;;;;;7.00;4.13;;;35.00;1.00;;;;;;5381494;26;21017;-72
2024/04/09 10:08:34;;;;;;;5.47;4.80;;;35.30;1.00;;;;;;5376240;26;20565;-74
2024/04/09 10:11:04;;;;;;;6.27;3.83;;;35.20;1.00;;;;;;5375874;26;20501;-73
2024/04/09 10:13:33;;;;;;;7.37;4.80;;;34.70;1.00;;;;;;5344203;26;20494;-75
2024/04/09 10:16:01;;;;;;;7.87;4.57;;;34.10;1.00;;;;;;5344555;26;20471;-74
2024/04/09 10:18:37;;;;;;;5.83;3.97;;;33.80;1.00;;;;;;5347082;26;21122;-73
2024/04/09 10:21:03;;;;;;;9.50;4.73;;;33.10;1.00;;;;;;5352947;26;20993;-73
2024/04/09 10:23:37;;;;;;;7.50;4.87;;;33.10;1.00;;;;;;5356974;26;21031;-74
2024/04/09 10:26:05;;;;;;;9.10;5.40;;;33.50;1.00;;;;;;5343004;26;20586;-72
2024/04/09 10:28:35;;;;;;;9.20;4.43;;;33.70;1.00;;;;;;5373966;26;20987;-73
2024/04/09 10:31:03;;;;;;;6.30;4.50;;;34.00;1.00;;;;;;5383813;26;20576;-72
2024/04/09 10:33:37;;;;;;;5.23;4.37;;;34.50;1.00;;;;;;5379952;26;20629;-72
2024/04/09 10:36:07;;;;;;;8.50;5.07;;;35.00;1.00;;;;;;5382052;26;21431;-74
2024/04/09 10:38:36;;;;;;;6.37;4.40;;;35.10;1.00;;;;;;5384533;26;20609;-73
2024/04/09 10:41:03;;;;;;;7.40;4.87;;;35.30;1.00;;;;;;5369435;26;20648;-74
2024/04/09 10:43:32;;;;;;;6.43;4.27;;;35.30;1.00;;;;;;5384437;26;20993;-73
2024/04/09 10:45:58;;;;;;;8.40;4.20;;;35.00;1.00;;;;;;5383415;26;20534;-72
2024/04/09 10:48:31;;;;;;;7.07;4.37;;;35.30;1.00;;;;;;5381532;26;20494;-73
2024/04/09 10:51:00;;;;;;;9.33;4.83;;;35.90;1.00;;;;;;5382080;26;20517;-74
2024/04/09 10:53:29;;;;;;;5.80;4.50;;;35.60;1.00;;;;;;5354699;26;20549;-75
2024/04/09 10:56:03;;;;;;;9.13;4.00;;;35.70;1.00;;;;;;5353662;26;20487;-73
2024/04/09 10:58:32;;;;;;;8.43;4.47;;;36.00;1.00;;;;;;5348004;26;20491;-72
2024/04/09 11:00:59;;;;;;;10.10;5.20;;;36.20;1.00;;;;;;5343959;26;20499;-72
2024/04/09 11:03:28;;;;;;;4.90;4.40;;;36.50;1.00;;;;;;5344899;26;21093;-73
2024/04/09 11:05:54;;;;;;;8.30;4.60;;;36.30;1.00;;;;;;5346197;26;20491;-73
2024/04/09 11:08:30;;;;;;;9.77;4.73;;;35.50;1.00;;;;;;5346660;26;20579;-73
2024/04/09 11:10:56;;;;;;;7.93;4.70;;;35.00;1.00;;;;;;5345123;26;20643;-74
2024/04/09 11:13:26;;;;;;;5.73;4.50;;;35.00;1.00;;;;;;5352689;26;20545;-73
2024/04/09 11:15:52;;;;;;;8.73;4.47;;;35.10;1.00;;;;;;5368564;26;20539;-74
2024/04/09 11:18:23;;;;;;;5.97;4.80;;;35.80;1.00;;;;;;5374941;26;20543;-74
2024/04/09 11:20:53;;;;;;;6.30;4.33;;;36.20;1.00;;;;;;5348953;26;20583;-73
2024/04/09 11:23:23;;;;;;;5.10;4.60;;;36.70;1.00;;;;;;5346901;26;20648;-74
2024/04/09 11:25:53;;;;;;;6.00;4.10;;;36.60;1.00;;;;;;5347966;26;20543;-74
2024/04/09 11:28:22;;;;;;;7.80;4.80;;;36.90;1.00;;;;;;5345372;26;20610;-73
2024/04/09 11:30:51;;;;;;;5.70;4.67;;;37.30;1.00;;;;;;5346229;26;21150;-74
2024/04/09 11:33:21;;;;;;;10.67;4.57;;;37.60;1.00;;;;;;5346473;26;20495;-74
2024/04/09 11:35:53;;;;;;;10.27;4.30;;;38.00;1.00;;;;;;5346751;26;20534;-74
2024/04/09 11:38:22;;;;;;;7.87;4.70;;;38.60;1.00;;;;;;5346591;26;20570;-74
2024/04/09 11:40:49;;;;;;;6.40;4.00;;;39.10;1.00;;;;;;5346484;26;20487;-74
2024/04/09 11:43:23;;;;;;;6.67;4.80;;;39.00;1.00;;;;;;5350365;26;20483;-74
2024/04/09 11:45:50;;;;;;;8.43;4.50;;;38.40;1.00;;;;;;5346012;26;20535;-74
2024/04/09 11:48:19;;;;;;;6.60;4.30;;;38.50;1.00;;;;;;5347933;26;20614;-72
2024/04/09 11:50:45;;;;;;;8.80;5.00;;;38.60;1.00;;;;;;5347576;26;21052;-71
2024/04/09 11:53:14;;;;;;;10.40;4.83;;;39.10;1.00;;;;;;5349078;26;20498;-73
2024/04/09 11:55:40;;;;;;;9.47;5.10;;;39.00;1.00;;;;;;5360119;26;20534;-74
2024/04/09 11:58:09;;;;;;;8.63;4.80;;;38.40;1.00;;;;;;5346417;26;20550;-72
2024/04/09 12:00:37;;;;;;;7.60;4.73;;;38.60;1.00;;;;;;5372557;26;20643;-74
2024/04/09 12:03:07;;;;;;;12.93;5.13;;;39.10;1.00;;;;;;5362056;26;20462;-73
2024/04/09 12:05:33;;;;;;;12.77;5.50;;;38.60;1.00;;;;;;5342715;26;20491;-73
2024/04/09 12:08:02;;;;;;;9.30;6.47;;;38.20;1.00;;;;;;5346292;26;20550;-73
2024/04/09 12:10:28;;;;;;;10.03;5.00;;;38.50;1.00;;;;;;5347829;26;20622;-73
2024/04/09 12:12:57;;;;;;;11.97;5.53;;;38.10;1.00;;;;;;5346956;26;21038;-73
2024/04/09 12:15:23;;;;;;;16.50;5.40;;;37.60;1.00;;;;;;5359121;26;20567;-73
2024/04/09 12:17:55;;;;;;;11.67;4.93;;;37.40;1.00;;;;;;5362969;26;20548;-73
2024/04/09 12:20:21;;;;;;;9.40;4.43;;;37.70;1.00;;;;;;5348162;26;20578;-73
2024/04/09 12:22:51;;;;;;;17.73;5.90;;;38.40;1.00;;;;;;5346032;26;20514;-74
2024/04/09 12:25:17;;;;;;;10.50;5.13;;;38.90;1.00;;;;;;5361467;26;20626;-74
2024/04/09 12:27:46;;;;;;;9.80;5.30;;;39.50;1.00;;;;;;5349045;26;20539;-73
2024/04/09 12:30:13;;;;;;;14.77;5.67;;;39.60;1.00;;;;;;5365555;26;20490;-73
2024/04/09 12:32:43;;;;;;;8.53;4.97;;;39.70;1.00;;;;;;5385459;26;20935;-73
2024/04/09 12:35:11;;;;;;;11.50;5.40;;;39.80;1.00;;;;;;5383153;26;20497;-74
2024/04/09 12:37:40;;;;;;;10.90;4.57;;;39.20;1.00;;;;;;5384760;26;20489;-76
2024/04/09 12:40:11;;;;;;;10.03;5.40;;;38.00;1.00;;;;;;5383583;26;20552;-73
2024/04/09 12:42:40;;;;;;;9.80;5.87;;;36.60;1.00;;;;;;5384602;26;21025;-72
2024/04/09 12:45:07;;;;;;;10.53;5.57;;;36.10;1.00;;;;;;5383576;26;20523;-73
2024/04/09 12:47:36;;;;;;;8.83;5.13;;;35.40;1.00;;;;;;5384594;26;20541;-74
2024/04/09 12:50:02;;;;;;;6.60;5.07;;;34.50;1.00;;;;;;5383693;26;20677;-74
2024/04/09 12:52:33;;;;;;;9.20;5.40;;;33.30;1.00;;;;;;5384719;26;20586;-74